createdAt,value
2018-11-26T00:01:33.285Z,100.00
2018-11-26T00:04:37.545Z,100.00
2018-11-26T00:07:41.814Z,100.00
2018-11-26T00:13:59.771Z,100.00
2018-11-26T00:17:04.032Z,100.00
2018-11-26T00:20:08.368Z,100.00
2018-11-26T00:23:12.698Z,100.00
2018-11-26T00:26:18.059Z,100.00
2018-11-26T00:29:22.336Z,100.00
2018-11-26T00:32:27.091Z,100.00
2018-11-26T00:35:31.348Z,100.00
2018-11-26T00:38:35.611Z,100.00
2018-11-26T00:41:39.877Z,100.00
2018-11-26T00:44:44.183Z,100.00
2018-11-26T00:47:48.438Z,100.00
2018-11-26T00:50:52.731Z,100.00
2018-11-26T00:53:57.010Z,100.00
2018-11-26T00:57:01.293Z,100.00
2018-11-26T01:00:09.378Z,100.00
2018-11-26T01:03:13.683Z,100.00
2018-11-26T01:06:17.957Z,100.00
2018-11-26T01:09:22.214Z,100.00
2018-11-26T01:12:26.490Z,100.00
2018-11-26T01:15:30.781Z,100.00
2018-11-26T01:18:35.041Z,100.00
2018-11-26T01:21:39.287Z,100.00
2018-11-26T01:24:43.553Z,100.00
2018-11-26T01:27:47.847Z,100.00
2018-11-26T01:30:52.086Z,100.00
2018-11-26T01:33:56.375Z,100.00
2018-11-26T01:37:00.633Z,100.00
2018-11-26T01:40:06.861Z,100.00
2018-11-26T01:43:11.090Z,100.00
2018-11-26T01:50:07.494Z,100.00
2018-11-26T01:53:11.751Z,100.00
2018-11-26T01:56:16.023Z,100.00
2018-11-26T01:59:20.282Z,100.00
2018-11-26T02:02:24.545Z,100.00
2018-11-26T02:05:28.814Z,100.00
2018-11-26T02:08:33.101Z,100.00
2018-11-26T02:11:37.395Z,100.00
2018-11-26T02:14:41.674Z,100.00
2018-11-26T02:17:45.926Z,100.00
2018-11-26T02:20:50.213Z,100.00
2018-11-26T02:23:54.514Z,100.00
2018-11-26T02:26:58.848Z,100.00
2018-11-26T02:30:03.086Z,100.00
2018-11-26T02:33:07.366Z,100.00
2018-11-26T02:36:11.618Z,100.00
2018-11-26T02:39:15.912Z,100.00
2018-11-26T02:42:20.214Z,100.00
2018-11-26T02:45:24.476Z,100.00
2018-11-26T02:48:28.733Z,100.00
2018-11-26T02:51:33.018Z,100.00
2018-11-26T02:54:37.294Z,100.00
2018-11-26T02:57:41.569Z,100.00
2018-11-26T03:00:46.962Z,100.00
2018-11-26T03:03:51.276Z,100.00
2018-11-26T03:06:55.548Z,100.00
2018-11-26T03:09:59.860Z,100.00
2018-11-26T03:13:04.135Z,100.00
2018-11-26T03:16:08.407Z,100.00
2018-11-26T03:19:12.684Z,100.00
2018-11-26T03:22:16.954Z,100.00
2018-11-26T03:25:21.257Z,100.00
2018-11-26T03:28:25.557Z,100.00
2018-11-26T03:31:29.839Z,100.00
2018-11-26T03:34:34.131Z,100.00
2018-11-26T03:37:38.408Z,100.00
2018-11-26T03:40:42.689Z,100.00
2018-11-26T03:43:47.038Z,100.00
2018-11-26T03:46:51.330Z,100.00
2018-11-26T03:49:55.627Z,100.00
2018-11-26T03:52:59.878Z,100.00
2018-11-26T03:56:04.223Z,100.00
2018-11-26T03:59:08.542Z,100.00
2018-11-26T04:02:12.833Z,100.00
2018-11-26T04:05:17.163Z,100.00
2018-11-26T04:08:21.459Z,100.00
2018-11-26T04:11:25.789Z,100.00
2018-11-26T04:14:30.045Z,100.00
2018-11-26T04:17:34.413Z,100.00
2018-11-26T04:20:38.662Z,100.00
2018-11-26T04:23:42.962Z,100.00
2018-11-26T04:26:47.266Z,100.00
2018-11-26T04:29:51.533Z,100.00
2018-11-26T04:32:55.908Z,100.00
2018-11-26T04:36:00.240Z,100.00
2018-11-26T04:39:05.575Z,100.00
2018-11-26T04:42:09.920Z,100.00
2018-11-26T04:45:14.207Z,100.00
2018-11-26T04:48:19.446Z,100.00
2018-11-26T04:51:23.722Z,100.00
2018-11-26T04:54:27.978Z,100.00
2018-11-26T04:57:32.249Z,100.00
2018-11-26T05:00:36.534Z,100.00
2018-11-26T05:03:40.768Z,100.00
2018-11-26T05:06:45.064Z,100.00
2018-11-26T05:09:49.326Z,100.00
2018-11-26T05:12:53.601Z,100.00
2018-11-26T05:15:57.856Z,100.00
2018-11-26T05:19:02.114Z,100.00
2018-11-26T05:22:06.732Z,100.00
2018-11-26T05:25:12.661Z,100.00
2018-11-26T05:28:16.936Z,100.00
2018-11-26T05:31:21.228Z,100.00
2018-11-26T05:34:25.481Z,100.00
2018-11-26T05:37:29.807Z,100.00
2018-11-26T05:40:34.066Z,100.00
2018-11-26T05:43:38.349Z,100.00
2018-11-26T05:46:42.626Z,100.00
2018-11-26T05:49:46.951Z,100.00
2018-11-26T05:52:51.228Z,100.00
2018-11-26T05:55:55.621Z,100.00
2018-11-26T05:58:59.886Z,100.00
2018-11-26T06:02:04.193Z,100.00
2018-11-26T06:05:08.621Z,100.00
2018-11-26T06:08:14.730Z,100.00
2018-11-26T06:11:19.006Z,100.00
2018-11-26T06:14:23.285Z,100.00
2018-11-26T06:17:27.547Z,100.00
2018-11-26T06:20:31.866Z,100.00
2018-11-26T06:23:36.137Z,100.00
2018-11-26T06:26:41.198Z,100.00
2018-11-26T06:29:45.501Z,100.00
2018-11-26T06:32:50.114Z,100.00
2018-11-26T06:35:55.800Z,100.00
2018-11-26T06:39:00.084Z,100.00
2018-11-26T06:42:04.377Z,100.00
2018-11-26T06:45:16.573Z,100.00
2018-11-26T06:48:20.841Z,100.00
2018-11-26T06:51:25.084Z,100.00
2018-11-26T06:54:29.340Z,100.00
2018-11-26T06:57:33.582Z,100.00
2018-11-26T07:00:37.866Z,100.00
2018-11-26T07:03:42.624Z,100.00
2018-11-26T07:06:46.973Z,100.00
2018-11-26T07:09:53.082Z,100.00
2018-11-26T07:12:57.823Z,100.00
2018-11-26T07:16:04.101Z,100.00
2018-11-26T07:19:08.599Z,100.00
2018-11-26T07:22:13.360Z,100.00
2018-11-26T07:25:19.724Z,100.00
2018-11-26T07:28:24.323Z,100.00
2018-11-26T07:31:28.612Z,100.00
2018-11-26T07:34:32.950Z,100.00
2018-11-26T07:37:37.345Z,100.00
2018-11-26T07:40:41.660Z,100.00
2018-11-26T07:43:45.944Z,100.00
2018-11-26T07:46:50.487Z,100.00
2018-11-26T07:49:55.902Z,100.00
2018-11-26T07:53:01.265Z,100.00
2018-11-26T07:56:05.807Z,100.00
2018-11-26T07:59:10.425Z,100.00
2018-11-26T08:02:14.759Z,100.00
2018-11-26T08:05:25.000Z,100.00
2018-11-26T08:08:29.980Z,100.00
2018-11-26T08:11:34.333Z,100.00
2018-11-26T08:14:38.616Z,100.00
2018-11-26T08:17:43.139Z,100.00
2018-11-26T08:20:47.459Z,100.00
2018-11-26T08:23:53.350Z,100.00
2018-11-26T08:26:57.684Z,100.00
2018-11-26T08:30:01.996Z,100.00
2018-11-26T08:33:07.953Z,100.00
2018-11-26T08:36:13.787Z,100.00
2018-11-26T08:39:18.863Z,100.00
2018-11-26T08:42:27.043Z,100.00
2018-11-26T08:45:38.493Z,100.00
2018-11-26T08:48:53.405Z,100.00
2018-11-26T08:51:58.139Z,100.00
2018-11-26T08:55:04.086Z,100.00
2018-11-26T08:58:08.843Z,100.00
2018-11-26T09:01:18.064Z,100.00
2018-11-26T09:04:28.307Z,100.00
2018-11-26T09:07:32.963Z,100.00
2018-11-26T09:10:37.281Z,100.00
2018-11-26T09:13:43.132Z,100.00
2018-11-26T09:16:47.390Z,100.00
2018-11-26T09:19:51.658Z,100.00
2018-11-26T09:22:55.939Z,100.00
2018-11-26T09:26:00.175Z,100.00
2018-11-26T09:29:04.456Z,100.00
2018-11-26T09:32:08.729Z,100.00
2018-11-26T09:35:16.358Z,100.00
2018-11-26T09:38:20.627Z,100.00
2018-11-26T09:41:24.911Z,100.00
2018-11-26T09:44:29.192Z,100.00
2018-11-26T09:47:33.479Z,100.00
2018-11-26T09:50:37.734Z,100.00
2018-11-26T09:53:42.015Z,100.00
2018-11-26T09:56:46.282Z,100.00
2018-11-26T09:59:50.558Z,100.00
2018-11-26T10:02:54.877Z,100.00
2018-11-26T10:05:59.264Z,100.00
2018-11-26T10:09:03.652Z,100.00
2018-11-26T10:12:07.915Z,100.00
2018-11-26T10:15:17.204Z,100.00
2018-11-26T10:18:21.462Z,100.00
2018-11-26T10:21:25.759Z,100.00
2018-11-26T10:24:30.012Z,100.00
2018-11-26T10:27:34.277Z,100.00
2018-11-26T10:30:38.554Z,100.00
2018-11-26T10:33:42.862Z,100.00
2018-11-26T10:36:47.105Z,100.00
2018-11-26T10:39:51.412Z,100.00
2018-11-26T10:42:56.479Z,100.00
2018-11-26T10:46:00.738Z,100.00
2018-11-26T10:49:05.733Z,100.00
2018-11-26T10:52:10.011Z,100.00
2018-11-26T10:55:19.604Z,100.00
2018-11-26T10:58:23.866Z,100.00
2018-11-26T11:01:33.404Z,100.00
2018-11-26T11:04:37.649Z,100.00
2018-11-26T11:07:41.951Z,100.00
2018-11-26T11:10:46.259Z,100.00
2018-11-26T11:13:50.553Z,100.00
2018-11-26T11:16:54.861Z,100.00
2018-11-26T11:19:59.159Z,100.00
2018-11-26T11:23:03.414Z,100.00
2018-11-26T11:26:07.694Z,100.00
2018-11-26T11:29:11.955Z,100.00
2018-11-26T11:32:16.274Z,100.00
2018-11-26T11:35:20.664Z,100.00
2018-11-26T11:38:24.911Z,100.00
2018-11-26T11:41:34.093Z,100.00
2018-11-26T11:44:33.542Z,100.00
2018-11-26T11:47:37.855Z,100.00
2018-11-26T11:50:42.365Z,100.00
2018-11-26T11:53:46.638Z,100.00
2018-11-26T11:56:50.884Z,100.00
2018-11-26T11:59:55.156Z,100.00
2018-11-26T12:03:00.240Z,100.00
2018-11-26T12:06:04.535Z,100.00
2018-11-26T12:09:10.595Z,100.00
2018-11-26T12:12:14.876Z,100.00
2018-11-26T12:15:19.146Z,100.00
2018-11-26T12:18:23.394Z,100.00
2018-11-26T12:21:27.753Z,100.00
2018-11-26T12:24:32.026Z,100.00
2018-11-26T12:27:36.282Z,100.00
2018-11-26T12:30:45.646Z,100.00
2018-11-26T12:33:49.895Z,100.00
2018-11-26T12:36:57.870Z,100.00
2018-11-26T12:39:58.536Z,100.00
2018-11-26T12:43:04.168Z,100.00
2018-11-26T12:46:08.453Z,100.00
2018-11-26T12:49:12.725Z,100.00
2018-11-26T12:52:16.981Z,100.00
2018-11-26T12:55:22.482Z,100.00
2018-11-26T12:58:26.741Z,100.00
2018-11-26T13:01:31.002Z,100.00
2018-11-26T13:04:35.244Z,100.00
2018-11-26T13:07:39.487Z,100.00
2018-11-26T13:10:43.759Z,100.00
2018-11-26T13:13:48.095Z,100.00
2018-11-26T13:16:52.360Z,100.00
2018-11-26T13:19:56.610Z,100.00
2018-11-26T13:23:00.902Z,100.00
2018-11-26T13:26:05.200Z,100.00
2018-11-26T13:29:09.480Z,100.00
2018-11-26T13:32:13.758Z,100.00
2018-11-26T13:35:18.957Z,100.00
2018-11-26T13:38:23.263Z,100.00
2018-11-26T13:41:27.529Z,100.00
2018-11-26T13:44:31.811Z,100.00
2018-11-26T13:47:36.064Z,100.00
2018-11-26T13:50:44.003Z,100.00
2018-11-26T13:53:48.295Z,100.00
2018-11-26T13:56:52.525Z,100.00
2018-11-26T13:59:56.805Z,100.00
2018-11-26T14:03:01.039Z,100.00
2018-11-26T14:06:05.323Z,100.00
2018-11-26T14:09:10.661Z,100.00
2018-11-26T14:12:14.940Z,100.00
2018-11-26T14:15:19.239Z,100.00
2018-11-26T14:18:23.459Z,100.00
2018-11-26T14:21:27.747Z,100.00
2018-11-26T14:24:32.002Z,100.00
2018-11-26T14:27:36.251Z,100.00
2018-11-26T14:30:40.716Z,100.00
2018-11-26T14:33:44.975Z,100.00
2018-11-26T14:36:49.227Z,100.00
2018-11-26T14:39:53.477Z,100.00
2018-11-26T14:42:57.724Z,100.00
2018-11-26T14:46:01.960Z,100.00
2018-11-26T14:49:06.231Z,100.00
2018-11-26T14:52:10.500Z,100.00
2018-11-26T14:55:30.396Z,100.00
2018-11-26T14:58:34.695Z,100.00
2018-11-26T15:01:39.309Z,100.00
2018-11-26T15:04:43.237Z,100.00
2018-11-26T15:07:47.505Z,100.00
2018-11-26T15:10:52.591Z,100.00
2018-11-26T15:13:56.841Z,100.00
2018-11-26T15:17:01.132Z,100.00
2018-11-26T15:20:14.016Z,100.00
2018-11-26T15:23:18.260Z,100.00
2018-11-26T15:26:22.516Z,100.00
2018-11-26T15:29:26.763Z,100.00
2018-11-26T15:36:07.092Z,100.00
2018-11-26T15:39:11.985Z,100.00
2018-11-26T15:42:16.255Z,100.00
2018-11-26T15:45:23.755Z,100.00
2018-11-26T15:48:28.011Z,100.00
2018-11-26T15:51:32.284Z,100.00
2018-11-26T15:54:36.560Z,100.00
2018-11-26T15:57:40.827Z,100.00
2018-11-26T16:00:45.149Z,100.00
2018-11-26T16:39:52.939Z,100.00
2018-11-26T17:09:25.788Z,99.04
2018-11-26T17:12:36.977Z,98.71
2018-11-26T17:26:36.534Z,98.40
2018-11-26T17:29:50.838Z,98.31
2018-11-26T17:32:58.940Z,98.81
2018-11-26T17:36:06.805Z,99.14
2018-11-26T17:39:24.984Z,98.61
2018-11-26T17:47:05.500Z,98.74
2018-11-26T17:50:17.662Z,99.02
2018-11-26T17:53:22.609Z,98.07
2018-11-26T17:56:26.991Z,97.94
2018-11-26T17:59:31.902Z,98.48
2018-11-26T18:02:36.266Z,98.24
2018-11-26T18:05:40.581Z,98.47
2018-11-26T18:08:44.880Z,98.26
2018-11-26T18:11:49.268Z,98.60
2018-11-26T18:14:53.554Z,99.08
2018-11-26T18:17:57.820Z,98.84
2018-11-26T18:21:02.113Z,98.38
2018-11-26T18:24:07.198Z,98.25
2018-11-26T18:27:11.701Z,97.83
2018-11-26T18:30:24.412Z,98.22
2018-11-26T18:33:28.718Z,98.28
2018-11-26T18:36:32.984Z,97.97
2018-11-26T18:39:37.328Z,97.84
2018-11-26T18:42:42.848Z,97.52
2018-11-26T18:45:47.337Z,98.48
2018-11-26T18:48:51.674Z,99.17
2018-11-26T18:51:55.965Z,98.95
2018-11-26T18:55:00.199Z,99.85
2018-11-26T18:58:05.240Z,99.71
2018-11-26T19:01:09.879Z,99.74
2018-11-26T19:04:14.149Z,100.00
2018-11-26T19:07:18.400Z,100.00
2018-11-26T19:10:30.992Z,100.00
2018-11-26T19:13:48.240Z,100.00
2018-11-26T19:16:53.008Z,100.00
2018-11-26T19:19:57.292Z,100.00
2018-11-26T19:23:01.565Z,100.00
2018-11-26T19:26:05.942Z,100.00
2018-11-26T19:29:10.155Z,100.00
2018-11-26T19:32:14.371Z,100.00
2018-11-26T19:35:18.587Z,100.00
2018-11-26T19:38:22.769Z,100.00
2018-11-26T19:41:26.975Z,100.00
2018-11-26T19:44:31.195Z,100.00
2018-11-26T19:47:35.411Z,100.00
2018-11-26T19:50:40.231Z,100.00
2018-11-26T19:53:44.432Z,100.00
2018-11-26T19:56:48.663Z,100.00
2018-11-26T19:59:52.854Z,100.00
2018-11-26T20:03:34.511Z,100.00
2018-11-26T20:13:52.142Z,100.00
2018-11-26T20:20:24.755Z,100.00
2018-11-26T20:23:38.156Z,100.00
2018-11-26T20:26:42.448Z,100.00
2018-11-26T20:29:46.701Z,100.00
2018-11-26T20:32:50.917Z,100.00
2018-11-26T20:36:03.864Z,100.00
2018-11-26T20:39:10.176Z,100.00
2018-11-26T20:42:14.490Z,100.00
2018-11-26T20:45:18.711Z,100.00
2018-11-26T21:14:36.739Z,100.00
2018-11-26T21:59:54.739Z,100.00
2018-11-26T22:03:05.455Z,100.00
2018-11-26T22:06:09.944Z,100.00
2018-11-26T22:09:14.256Z,100.00
2018-11-26T22:12:18.519Z,100.00
2018-11-26T22:15:22.783Z,100.00
2018-11-26T22:18:27.040Z,100.00
2018-11-26T22:21:31.313Z,100.00
2018-11-26T22:24:35.571Z,100.00
2018-11-26T22:27:39.937Z,100.00
2018-11-26T22:30:44.265Z,100.00
2018-11-26T22:33:48.552Z,100.00
2018-11-26T22:36:52.837Z,100.00
2018-11-26T22:39:57.142Z,100.00
2018-11-26T22:43:01.347Z,100.00
2018-11-26T22:46:05.699Z,100.00
2018-11-26T22:49:09.948Z,100.00
2018-11-26T22:52:14.294Z,100.00
2018-11-26T22:55:18.583Z,100.00
2018-11-26T22:58:22.852Z,100.00
2018-11-26T23:01:27.223Z,100.00
2018-11-26T23:04:31.488Z,100.00
2018-11-26T23:07:35.838Z,100.00
2018-11-26T23:10:40.183Z,100.00
2018-11-26T23:13:44.880Z,100.00
2018-11-26T23:16:49.297Z,100.00
2018-11-26T23:19:55.040Z,100.00
2018-11-26T23:22:59.409Z,100.00
2018-11-26T23:26:06.405Z,100.00
2018-11-26T23:29:11.255Z,100.00
2018-11-26T23:32:16.135Z,100.00
2018-11-26T23:35:20.564Z,100.00
2018-11-26T23:38:24.992Z,100.00
2018-11-26T23:41:29.373Z,100.00
2018-11-26T23:44:33.802Z,100.00
2018-11-26T23:47:38.201Z,100.00
2018-11-26T23:50:42.545Z,100.00
2018-11-26T23:53:47.020Z,100.00
2018-11-26T23:56:52.193Z,100.00
2018-11-26T23:59:56.582Z,100.00
